createdAt,value
2022-12-13T00:14:28.469Z,5.03
2022-12-13T00:19:25.441Z,4.99
2022-12-13T00:24:22.454Z,4.65
2022-12-13T00:29:19.666Z,4.69
2022-12-13T00:34:18.325Z,4.84
2022-12-13T00:39:15.980Z,4.55
2022-12-13T00:44:14.479Z,4.65
2022-12-13T00:49:12.462Z,4.53
2022-12-13T00:54:10.483Z,4.23
2022-12-13T00:59:08.166Z,4.14
2022-12-13T01:04:06.301Z,4.07
2022-12-13T01:09:04.329Z,4.07
2022-12-13T01:14:01.977Z,3.99
2022-12-13T01:18:59.048Z,3.86
2022-12-13T01:24:01.325Z,3.87
2022-12-13T01:28:58.805Z,3.96
2022-12-13T01:33:56.825Z,3.79
2022-12-13T01:38:53.743Z,3.77
2022-12-13T01:44:00.421Z,3.68
2022-12-13T01:49:06.079Z,3.74
2022-12-13T01:54:23.528Z,3.06
2022-12-13T01:59:22.739Z,3.38
2022-12-13T02:04:29.582Z,3.13
2022-12-13T02:09:26.848Z,3.38
2022-12-13T02:14:23.861Z,2.75
2022-12-13T02:19:58.498Z,3.26
2022-12-13T02:25:12.766Z,2.90
2022-12-13T02:30:34.746Z,3.15
2022-12-13T02:35:40.085Z,2.96
2022-12-13T02:40:41.985Z,3.03
2022-12-13T02:45:45.307Z,2.85
2022-12-13T02:50:43.138Z,2.93
2022-12-13T02:55:40.312Z,2.94
2022-12-13T03:00:51.261Z,2.64
2022-12-13T03:06:23.685Z,2.69
2022-12-13T03:11:23.625Z,2.85
2022-12-13T03:16:34.028Z,2.85
2022-12-13T03:21:43.953Z,2.72
2022-12-13T03:26:44.492Z,2.77
2022-12-13T03:31:42.117Z,2.75
2022-12-13T03:36:39.379Z,2.43
2022-12-13T03:41:36.380Z,2.35
2022-12-13T03:46:33.726Z,2.68
2022-12-13T03:51:31.439Z,2.51
2022-12-13T03:56:28.526Z,2.52
2022-12-13T04:01:25.503Z,2.50
2022-12-13T04:06:25.405Z,2.55
2022-12-13T04:11:43.514Z,2.42
2022-12-13T04:16:40.372Z,2.47
2022-12-13T04:21:37.344Z,2.20
2022-12-13T04:26:34.827Z,2.27
2022-12-13T04:31:31.913Z,2.32
2022-12-13T04:36:31.995Z,2.19
2022-12-13T04:41:34.996Z,1.91
2022-12-13T04:46:33.029Z,2.17
2022-12-13T04:51:31.961Z,2.04
2022-12-13T04:56:28.907Z,1.78
2022-12-13T05:01:26.033Z,1.80
2022-12-13T05:06:26.293Z,2.10
2022-12-13T05:11:24.936Z,1.91
2022-12-13T05:16:24.885Z,2.06
2022-12-13T05:21:21.804Z,1.80
2022-12-13T05:26:19.694Z,1.89
2022-12-13T05:31:23.079Z,1.81
2022-12-13T05:36:24.727Z,1.83
2022-12-13T05:41:24.873Z,1.99
2022-12-13T05:46:21.950Z,1.80
2022-12-13T05:51:18.967Z,1.77
2022-12-13T05:56:22.644Z,1.96
2022-12-13T06:01:21.223Z,1.93
2022-12-13T06:06:18.278Z,1.72
2022-12-13T06:11:31.043Z,1.91
2022-12-13T06:16:32.077Z,1.80
2022-12-13T06:21:43.456Z,1.67
2022-12-13T06:26:45.094Z,1.86
2022-12-13T06:31:43.900Z,1.83
2022-12-13T06:36:42.490Z,1.89
2022-12-13T06:41:42.328Z,1.96
2022-12-13T06:46:40.749Z,2.11
2022-12-13T06:51:38.786Z,1.97
2022-12-13T06:56:36.543Z,1.95
2022-12-13T07:01:37.598Z,1.64
2022-12-13T07:06:35.498Z,2.22
2022-12-13T07:11:36.646Z,2.12
2022-12-13T07:16:33.635Z,2.46
2022-12-13T07:21:31.441Z,2.22
2022-12-13T07:26:28.329Z,2.36
2022-12-13T07:31:26.650Z,2.57
2022-12-13T07:36:23.939Z,2.34
2022-12-13T07:41:24.098Z,2.40
2022-12-13T07:46:25.996Z,2.23
2022-12-13T07:51:32.774Z,2.63
2022-12-13T07:56:33.164Z,2.22
2022-12-13T08:01:31.753Z,2.77
2022-12-13T08:06:28.708Z,2.53
2022-12-13T08:11:26.738Z,2.75
2022-12-13T08:16:28.412Z,2.58
2022-12-13T08:21:52.833Z,2.87
2022-12-13T08:26:45.499Z,2.62
2022-12-13T08:31:42.729Z,2.61
2022-12-13T08:36:40.847Z,2.69
2022-12-13T08:41:39.427Z,2.63
2022-12-13T08:46:37.143Z,2.68
2022-12-13T08:51:35.772Z,2.95
2022-12-13T08:56:35.581Z,2.95
2022-12-13T09:01:33.218Z,2.86
2022-12-13T09:06:31.280Z,2.77
2022-12-13T09:11:34.565Z,3.00
2022-12-13T09:16:37.353Z,2.81
2022-12-13T09:21:36.860Z,3.06
2022-12-13T09:27:27.179Z,2.59
2022-12-13T09:32:33.648Z,3.06
2022-12-13T09:37:34.555Z,3.29
2022-12-13T09:42:34.595Z,3.36
2022-12-13T09:47:36.116Z,3.43
2022-12-13T09:52:39.029Z,3.52
2022-12-13T09:57:36.667Z,3.36
2022-12-13T10:02:42.445Z,3.55
2022-12-13T10:07:40.593Z,3.69
2022-12-13T10:12:39.118Z,3.78
2022-12-13T10:17:41.448Z,3.50
2022-12-13T10:22:39.400Z,3.65
2022-12-13T10:27:38.596Z,3.94
2022-12-13T10:32:54.350Z,4.10
2022-12-13T10:37:58.369Z,4.56
2022-12-13T10:43:07.498Z,4.71
2022-12-13T10:48:28.135Z,4.76
2022-12-13T10:53:32.995Z,5.08
2022-12-13T10:58:39.049Z,4.98
2022-12-13T11:03:40.612Z,4.71
2022-12-13T11:08:39.275Z,5.33
2022-12-13T11:13:39.156Z,5.58
2022-12-13T11:18:39.918Z,5.95
2022-12-13T11:23:43.636Z,6.21
2022-12-13T11:29:09.429Z,6.06
2022-12-13T11:34:23.606Z,5.81
2022-12-13T11:39:29.670Z,5.56
2022-12-13T11:44:36.035Z,6.03
2022-12-13T11:49:38.784Z,5.77
2022-12-13T11:54:51.164Z,5.72
2022-12-13T11:59:54.867Z,6.17
2022-12-13T12:05:07.016Z,6.03
2022-12-13T12:10:24.445Z,5.48
2022-12-13T12:15:33.625Z,6.26
2022-12-13T12:21:05.565Z,5.64
2022-12-13T12:26:26.243Z,5.55
2022-12-13T12:31:34.301Z,5.89
2022-12-13T12:37:03.487Z,5.50
2022-12-13T12:42:23.972Z,5.66
2022-12-13T12:53:24.816Z,5.77
2022-12-13T12:58:34.299Z,5.85
2022-12-13T13:03:36.385Z,5.92
2022-12-13T13:08:41.054Z,5.77
2022-12-13T13:13:49.424Z,5.71
2022-12-13T13:18:51.250Z,5.49
2022-12-13T13:23:48.688Z,5.52
2022-12-13T13:28:46.914Z,5.20
2022-12-13T13:33:47.527Z,5.28
2022-12-13T13:38:52.249Z,5.04
2022-12-13T13:43:53.125Z,4.68
2022-12-13T13:48:59.668Z,4.53
2022-12-13T13:54:28.669Z,4.86
2022-12-13T14:00:03.140Z,4.76
2022-12-13T14:05:42.648Z,4.65
2022-12-13T14:10:52.164Z,4.39
2022-12-13T14:16:26.202Z,4.47
2022-12-13T14:21:33.852Z,4.00
2022-12-13T14:27:10.919Z,4.09
2022-12-13T14:32:10.830Z,4.12
2022-12-13T14:37:29.862Z,4.04
2022-12-13T14:42:33.247Z,3.77
2022-12-13T14:47:30.803Z,3.68
2022-12-13T14:52:35.614Z,3.76
2022-12-13T14:57:37.334Z,3.59
2022-12-13T15:02:36.698Z,3.59
2022-12-13T15:07:38.627Z,3.00
2022-12-13T15:12:38.150Z,3.46
2022-12-13T15:18:01.843Z,3.07
2022-12-13T15:23:40.343Z,2.93
2022-12-13T15:28:50.810Z,2.68
2022-12-13T15:33:52.439Z,3.26
2022-12-13T15:39:18.742Z,3.22
2022-12-13T15:44:23.296Z,3.14
2022-12-13T15:49:27.374Z,2.82
2022-12-13T15:54:28.218Z,2.99
2022-12-13T15:59:27.785Z,3.02
2022-12-13T16:04:27.625Z,2.74
2022-12-13T16:09:28.350Z,2.87
2022-12-13T16:14:39.514Z,2.32
2022-12-13T16:19:36.430Z,2.69
2022-12-13T16:24:36.962Z,2.57
2022-12-13T16:29:34.095Z,2.45
2022-12-13T16:34:32.012Z,2.68
2022-12-13T16:39:29.207Z,2.64
2022-12-13T16:44:35.238Z,2.40
2022-12-13T16:49:43.312Z,2.73
2022-12-13T16:54:42.868Z,2.14
2022-12-13T16:59:41.373Z,2.65
2022-12-13T17:04:40.972Z,2.14
2022-12-13T17:09:38.789Z,2.36
2022-12-13T17:14:36.493Z,2.38
2022-12-13T17:19:34.476Z,2.39
2022-12-13T17:24:31.486Z,2.34
2022-12-13T17:29:30.586Z,2.33
2022-12-13T17:34:27.695Z,2.18
2022-12-13T17:39:25.609Z,1.85
2022-12-13T17:44:23.998Z,2.19
2022-12-13T17:49:21.257Z,2.17
2022-12-13T17:54:18.956Z,2.19
2022-12-13T17:59:20.146Z,2.16
2022-12-13T18:04:19.856Z,2.04
2022-12-13T18:09:16.902Z,1.55
2022-12-13T18:14:22.922Z,1.90
2022-12-13T18:19:21.231Z,1.82
2022-12-13T18:24:18.319Z,1.85
2022-12-13T18:29:15.804Z,2.18
2022-12-13T18:34:15.291Z,1.77
2022-12-13T18:39:13.337Z,1.97
2022-12-13T18:44:14.125Z,1.84
2022-12-13T18:49:11.316Z,2.15
2022-12-13T18:54:15.466Z,2.15
2022-12-13T18:59:14.649Z,1.61
2022-12-13T19:04:12.051Z,2.08
2022-12-13T19:09:09.132Z,2.27
2022-12-13T19:14:06.319Z,2.13
2022-12-13T19:19:09.228Z,2.31
2022-12-13T19:24:10.806Z,2.36
2022-12-13T19:29:08.260Z,2.14
2022-12-13T19:34:11.054Z,2.29
2022-12-13T19:39:11.029Z,2.38
2022-12-13T19:44:25.700Z,2.51
2022-12-13T19:49:24.785Z,2.14
2022-12-13T19:54:26.227Z,2.70
2022-12-13T19:59:27.977Z,2.85
2022-12-13T20:04:35.572Z,2.80
2022-12-13T20:09:36.631Z,3.05
2022-12-13T20:14:36.047Z,2.92
2022-12-13T20:19:39.691Z,2.84
2022-12-13T20:24:37.055Z,3.37
2022-12-13T20:29:40.630Z,3.31
2022-12-13T20:34:42.035Z,3.49
2022-12-13T20:39:41.816Z,3.39
2022-12-13T20:44:44.476Z,3.51
2022-12-13T20:49:48.396Z,2.99
2022-12-13T20:54:46.389Z,3.14
2022-12-13T20:59:43.837Z,3.55
2022-12-13T21:04:44.830Z,2.93
2022-12-13T21:09:44.612Z,3.17
2022-12-13T21:14:41.873Z,3.05
2022-12-13T21:19:40.691Z,3.56
2022-12-13T21:24:41.198Z,2.82
2022-12-13T21:29:38.258Z,3.36
2022-12-13T21:34:39.370Z,3.07
2022-12-13T21:39:36.649Z,3.52
2022-12-13T21:44:36.500Z,3.02
2022-12-13T21:50:04.654Z,3.53
2022-12-13T21:55:37.856Z,3.57
2022-12-13T22:00:25.480Z,3.61
2022-12-13T22:05:22.586Z,3.47
2022-12-13T22:10:19.626Z,3.68
2022-12-13T22:15:16.762Z,3.52
2022-12-13T22:20:18.198Z,3.68
2022-12-13T22:25:15.439Z,3.67
2022-12-13T22:30:13.419Z,3.68
2022-12-13T22:35:11.310Z,3.59
2022-12-13T22:40:10.678Z,3.41
2022-12-13T22:45:08.484Z,3.52
2022-12-13T22:50:06.515Z,3.19
2022-12-13T22:55:04.362Z,3.51
2022-12-13T23:00:02.450Z,3.43
2022-12-13T23:04:59.486Z,3.29
2022-12-13T23:09:56.847Z,3.09
2022-12-13T23:14:53.745Z,2.96
2022-12-13T23:19:53.443Z,2.61
2022-12-13T23:24:51.548Z,2.53
2022-12-13T23:29:48.978Z,2.73
2022-12-13T23:34:45.981Z,2.30
2022-12-13T23:39:43.648Z,2.00
2022-12-13T23:44:41.603Z,2.70
2022-12-13T23:49:38.542Z,2.76
2022-12-13T23:54:35.667Z,2.81
2022-12-13T23:59:33.441Z,2.52
